sensor_id;sensor_type;location;lat;lon;timestamp;P1;durP1;ratioP1;P2;durP2;ratioP2
74471;SDS011;62920;53.572;10.050;2023-01-19T00:01:11;12.98;;;6.10;;
74471;SDS011;62920;53.572;10.050;2023-01-19T00:03:36;13.75;;;6.43;;
74471;SDS011;62920;53.572;10.050;2023-01-19T00:06:05;17.13;;;6.90;;
74471;SDS011;62920;53.572;10.050;2023-01-19T00:08:31;15.18;;;5.85;;
74471;SDS011;62920;53.572;10.050;2023-01-19T00:10:56;16.17;;;6.65;;
74471;SDS011;62920;53.572;10.050;2023-01-19T00:13:22;12.38;;;5.63;;
74471;SDS011;62920;53.572;10.050;2023-01-19T00:15:47;14.88;;;6.75;;
74471;SDS011;62920;53.572;10.050;2023-01-19T00:18:13;12.70;;;6.35;;
74471;SDS011;62920;53.572;10.050;2023-01-19T00:20:38;15.57;;;7.20;;
74471;SDS011;62920;53.572;10.050;2023-01-19T00:23:04;13.35;;;6.60;;
74471;SDS011;62920;53.572;10.050;2023-01-19T00:27:56;15.15;;;6.30;;
74471;SDS011;62920;53.572;10.050;2023-01-19T00:30:22;12.40;;;5.90;;
74471;SDS011;62920;53.572;10.050;2023-01-19T00:32:47;17.25;;;6.72;;
74471;SDS011;62920;53.572;10.050;2023-01-19T00:35:13;12.77;;;5.95;;
74471;SDS011;62920;53.572;10.050;2023-01-19T00:37:39;13.68;;;6.32;;
74471;SDS011;62920;53.572;10.050;2023-01-19T00:40:04;12.48;;;6.53;;
74471;SDS011;62920;53.572;10.050;2023-01-19T00:42:31;15.65;;;7.40;;
74471;SDS011;62920;53.572;10.050;2023-01-19T00:45:17;14.88;;;6.53;;
74471;SDS011;62920;53.572;10.050;2023-01-19T00:47:44;13.60;;;6.32;;
74471;SDS011;62920;53.572;10.050;2023-01-19T00:50:10;11.93;;;6.25;;
74471;SDS011;62920;53.572;10.050;2023-01-19T00:52:37;14.00;;;6.78;;
74471;SDS011;62920;53.572;10.050;2023-01-19T00:55:03;13.35;;;6.63;;
74471;SDS011;62920;53.572;10.050;2023-01-19T00:57:29;13.63;;;6.93;;
74471;SDS011;62920;53.572;10.050;2023-01-19T00:59:54;16.20;;;6.47;;
74471;SDS011;62920;53.572;10.050;2023-01-19T01:02:20;12.98;;;6.60;;
74471;SDS011;62920;53.572;10.050;2023-01-19T01:04:45;14.63;;;6.82;;
74471;SDS011;62920;53.572;10.050;2023-01-19T01:07:10;17.00;;;7.20;;
74471;SDS011;62920;53.572;10.050;2023-01-19T01:09:36;11.93;;;6.53;;
74471;SDS011;62920;53.572;10.050;2023-01-19T01:12:01;14.52;;;6.97;;
74471;SDS011;62920;53.572;10.050;2023-01-19T01:14:27;16.02;;;7.15;;
74471;SDS011;62920;53.572;10.050;2023-01-19T01:16:52;14.63;;;6.63;;
74471;SDS011;62920;53.572;10.050;2023-01-19T01:19:19;14.98;;;6.40;;
74471;SDS011;62920;53.572;10.050;2023-01-19T01:21:44;14.55;;;6.97;;
74471;SDS011;62920;53.572;10.050;2023-01-19T01:24:10;14.38;;;6.90;;
74471;SDS011;62920;53.572;10.050;2023-01-19T01:26:35;12.23;;;6.43;;
74471;SDS011;62920;53.572;10.050;2023-01-19T01:29:01;17.38;;;6.85;;
74471;SDS011;62920;53.572;10.050;2023-01-19T01:31:26;16.55;;;6.90;;
74471;SDS011;62920;53.572;10.050;2023-01-19T01:33:52;15.45;;;6.40;;
74471;SDS011;62920;53.572;10.050;2023-01-19T01:36:17;14.27;;;7.20;;
74471;SDS011;62920;53.572;10.050;2023-01-19T01:38:43;13.13;;;6.22;;
74471;SDS011;62920;53.572;10.050;2023-01-19T01:41:08;12.73;;;6.63;;
74471;SDS011;62920;53.572;10.050;2023-01-19T01:43:44;12.40;;;6.43;;
74471;SDS011;62920;53.572;10.050;2023-01-19T01:46:12;20.05;;;6.95;;
74471;SDS011;62920;53.572;10.050;2023-01-19T01:48:39;14.32;;;6.50;;
74471;SDS011;62920;53.572;10.050;2023-01-19T01:51:12;13.35;;;6.07;;
74471;SDS011;62920;53.572;10.050;2023-01-19T01:56:42;13.65;;;6.55;;
74471;SDS011;62920;53.572;10.050;2023-01-19T01:59:17;14.15;;;6.57;;
74471;SDS011;62920;53.572;10.050;2023-01-19T02:01:53;15.57;;;6.32;;
74471;SDS011;62920;53.572;10.050;2023-01-19T02:04:39;12.48;;;7.00;;
74471;SDS011;62920;53.572;10.050;2023-01-19T02:07:18;11.57;;;5.82;;
74471;SDS011;62920;53.572;10.050;2023-01-19T02:10:07;15.50;;;6.10;;
74471;SDS011;62920;53.572;10.050;2023-01-19T02:12:52;18.25;;;7.07;;
74471;SDS011;62920;53.572;10.050;2023-01-19T02:15:36;13.00;;;6.32;;
74471;SDS011;62920;53.572;10.050;2023-01-19T02:18:01;9.90;;;6.18;;
74471;SDS011;62920;53.572;10.050;2023-01-19T02:20:27;14.32;;;6.45;;
74471;SDS011;62920;53.572;10.050;2023-01-19T02:22:54;11.15;;;6.20;;
74471;SDS011;62920;53.572;10.050;2023-01-19T02:25:21;9.45;;;5.65;;
74471;SDS011;62920;53.572;10.050;2023-01-19T02:27:47;12.65;;;6.85;;
74471;SDS011;62920;53.572;10.050;2023-01-19T02:30:14;11.60;;;6.35;;
74471;SDS011;62920;53.572;10.050;2023-01-19T02:32:40;14.32;;;7.13;;
74471;SDS011;62920;53.572;10.050;2023-01-19T02:35:06;14.13;;;5.90;;
74471;SDS011;62920;53.572;10.050;2023-01-19T02:37:32;11.73;;;5.82;;
74471;SDS011;62920;53.572;10.050;2023-01-19T02:40:02;10.65;;;5.45;;
74471;SDS011;62920;53.572;10.050;2023-01-19T02:42:36;13.48;;;6.68;;
74471;SDS011;62920;53.572;10.050;2023-01-19T02:45:04;11.50;;;5.55;;
74471;SDS011;62920;53.572;10.050;2023-01-19T02:47:41;10.55;;;6.57;;
74471;SDS011;62920;53.572;10.050;2023-01-19T02:53:20;13.57;;;6.55;;
74471;SDS011;62920;53.572;10.050;2023-01-19T02:55:55;11.73;;;6.20;;
74471;SDS011;62920;53.572;10.050;2023-01-19T03:06:33;12.70;;;6.32;;
74471;SDS011;62920;53.572;10.050;2023-01-19T03:09:05;14.77;;;5.93;;
74471;SDS011;62920;53.572;10.050;2023-01-19T03:11:37;14.75;;;6.65;;
74471;SDS011;62920;53.572;10.050;2023-01-19T03:14:11;12.23;;;6.60;;
74471;SDS011;62920;53.572;10.050;2023-01-19T03:16:40;15.07;;;6.40;;
74471;SDS011;62920;53.572;10.050;2023-01-19T03:19:08;14.40;;;7.20;;
74471;SDS011;62920;53.572;10.050;2023-01-19T03:21:37;11.35;;;6.38;;
74471;SDS011;62920;53.572;10.050;2023-01-19T03:24:04;11.93;;;5.90;;
74471;SDS011;62920;53.572;10.050;2023-01-19T03:26:31;12.98;;;6.50;;
74471;SDS011;62920;53.572;10.050;2023-01-19T03:29:01;13.20;;;6.70;;
74471;SDS011;62920;53.572;10.050;2023-01-19T03:31:27;13.30;;;6.25;;
74471;SDS011;62920;53.572;10.050;2023-01-19T03:33:56;12.98;;;7.05;;
74471;SDS011;62920;53.572;10.050;2023-01-19T03:36:46;10.82;;;6.30;;
74471;SDS011;62920;53.572;10.050;2023-01-19T03:39:13;11.43;;;6.10;;
74471;SDS011;62920;53.572;10.050;2023-01-19T03:41:42;11.80;;;5.65;;
74471;SDS011;62920;53.572;10.050;2023-01-19T03:44:08;12.10;;;6.75;;
74471;SDS011;62920;53.572;10.050;2023-01-19T03:46:36;15.68;;;7.22;;
74471;SDS011;62920;53.572;10.050;2023-01-19T03:49:02;13.65;;;6.50;;
74471;SDS011;62920;53.572;10.050;2023-01-19T03:51:27;11.40;;;6.38;;
74471;SDS011;62920;53.572;10.050;2023-01-19T03:53:53;12.38;;;6.97;;
74471;SDS011;62920;53.572;10.050;2023-01-19T03:56:20;15.43;;;7.30;;
74471;SDS011;62920;53.572;10.050;2023-01-19T03:58:46;15.63;;;6.35;;
74471;SDS011;62920;53.572;10.050;2023-01-19T04:01:12;14.15;;;7.55;;
74471;SDS011;62920;53.572;10.050;2023-01-19T04:03:38;18.67;;;7.38;;
74471;SDS011;62920;53.572;10.050;2023-01-19T04:06:05;16.40;;;7.22;;
74471;SDS011;62920;53.572;10.050;2023-01-19T04:08:31;17.05;;;7.65;;
74471;SDS011;62920;53.572;10.050;2023-01-19T04:10:57;13.07;;;7.07;;
74471;SDS011;62920;53.572;10.050;2023-01-19T04:13:22;16.67;;;7.25;;
74471;SDS011;62920;53.572;10.050;2023-01-19T04:15:48;12.85;;;7.10;;
74471;SDS011;62920;53.572;10.050;2023-01-19T04:18:13;15.00;;;7.20;;
74471;SDS011;62920;53.572;10.050;2023-01-19T04:20:38;12.65;;;6.78;;
74471;SDS011;62920;53.572;10.050;2023-01-19T04:23:04;13.95;;;7.13;;
74471;SDS011;62920;53.572;10.050;2023-01-19T04:25:29;11.43;;;6.78;;
74471;SDS011;62920;53.572;10.050;2023-01-19T04:27:55;14.45;;;6.80;;
74471;SDS011;62920;53.572;10.050;2023-01-19T04:30:22;15.70;;;7.60;;
74471;SDS011;62920;53.572;10.050;2023-01-19T04:32:47;19.33;;;7.90;;
74471;SDS011;62920;53.572;10.050;2023-01-19T04:35:13;15.13;;;7.30;;
74471;SDS011;62920;53.572;10.050;2023-01-19T04:37:38;12.30;;;6.70;;
74471;SDS011;62920;53.572;10.050;2023-01-19T04:40:04;14.25;;;7.22;;
74471;SDS011;62920;53.572;10.050;2023-01-19T04:42:30;13.77;;;7.03;;
74471;SDS011;62920;53.572;10.050;2023-01-19T04:44:56;16.55;;;8.55;;
74471;SDS011;62920;53.572;10.050;2023-01-19T04:47:21;15.75;;;7.85;;
74471;SDS011;62920;53.572;10.050;2023-01-19T04:49:47;15.63;;;8.25;;
74471;SDS011;62920;53.572;10.050;2023-01-19T04:52:12;16.73;;;8.40;;
74471;SDS011;62920;53.572;10.050;2023-01-19T04:54:37;16.60;;;7.72;;
74471;SDS011;62920;53.572;10.050;2023-01-19T04:57:03;17.08;;;8.20;;
74471;SDS011;62920;53.572;10.050;2023-01-19T04:59:28;11.90;;;7.38;;
74471;SDS011;62920;53.572;10.050;2023-01-19T05:01:54;17.42;;;8.65;;
74471;SDS011;62920;53.572;10.050;2023-01-19T05:04:20;14.60;;;8.25;;
74471;SDS011;62920;53.572;10.050;2023-01-19T05:06:46;13.77;;;7.72;;
74471;SDS011;62920;53.572;10.050;2023-01-19T05:09:12;18.55;;;8.25;;
74471;SDS011;62920;53.572;10.050;2023-01-19T05:11:39;16.25;;;7.63;;
74471;SDS011;62920;53.572;10.050;2023-01-19T05:14:05;13.90;;;7.80;;
74471;SDS011;62920;53.572;10.050;2023-01-19T05:16:30;16.05;;;7.68;;
74471;SDS011;62920;53.572;10.050;2023-01-19T05:18:56;15.73;;;8.07;;
74471;SDS011;62920;53.572;10.050;2023-01-19T05:21:22;18.55;;;7.57;;
74471;SDS011;62920;53.572;10.050;2023-01-19T05:23:47;14.50;;;8.23;;
74471;SDS011;62920;53.572;10.050;2023-01-19T05:26:12;19.27;;;8.40;;
74471;SDS011;62920;53.572;10.050;2023-01-19T05:28:38;17.00;;;7.82;;
74471;SDS011;62920;53.572;10.050;2023-01-19T05:31:03;13.98;;;7.85;;
74471;SDS011;62920;53.572;10.050;2023-01-19T05:33:29;12.80;;;6.88;;
74471;SDS011;62920;53.572;10.050;2023-01-19T05:35:54;15.82;;;7.95;;
74471;SDS011;62920;53.572;10.050;2023-01-19T05:38:20;15.82;;;8.63;;
74471;SDS011;62920;53.572;10.050;2023-01-19T05:40:46;16.10;;;8.38;;
74471;SDS011;62920;53.572;10.050;2023-01-19T05:43:12;14.05;;;7.82;;
74471;SDS011;62920;53.572;10.050;2023-01-19T05:45:38;18.52;;;8.10;;
74471;SDS011;62920;53.572;10.050;2023-01-19T05:48:04;15.13;;;8.00;;
74471;SDS011;62920;53.572;10.050;2023-01-19T05:50:30;14.98;;;8.30;;
74471;SDS011;62920;53.572;10.050;2023-01-19T05:52:59;16.10;;;7.90;;
74471;SDS011;62920;53.572;10.050;2023-01-19T05:55:25;19.67;;;9.07;;
74471;SDS011;62920;53.572;10.050;2023-01-19T05:57:51;15.55;;;7.78;;
74471;SDS011;62920;53.572;10.050;2023-01-19T06:00:16;15.95;;;9.07;;
74471;SDS011;62920;53.572;10.050;2023-01-19T06:02:42;13.70;;;8.07;;
74471;SDS011;62920;53.572;10.050;2023-01-19T06:05:07;17.08;;;8.35;;
74471;SDS011;62920;53.572;10.050;2023-01-19T06:07:33;16.80;;;9.10;;
74471;SDS011;62920;53.572;10.050;2023-01-19T06:09:59;17.08;;;8.27;;
74471;SDS011;62920;53.572;10.050;2023-01-19T06:12:24;18.25;;;8.20;;
74471;SDS011;62920;53.572;10.050;2023-01-19T06:14:50;14.27;;;8.07;;
74471;SDS011;62920;53.572;10.050;2023-01-19T06:17:15;16.75;;;8.18;;
74471;SDS011;62920;53.572;10.050;2023-01-19T06:19:41;20.67;;;8.65;;
74471;SDS011;62920;53.572;10.050;2023-01-19T06:22:06;15.00;;;8.15;;
74471;SDS011;62920;53.572;10.050;2023-01-19T06:24:32;17.45;;;8.88;;
74471;SDS011;62920;53.572;10.050;2023-01-19T06:26:57;16.63;;;8.48;;
74471;SDS011;62920;53.572;10.050;2023-01-19T06:29:24;15.77;;;8.05;;
74471;SDS011;62920;53.572;10.050;2023-01-19T06:31:50;15.07;;;8.10;;
74471;SDS011;62920;53.572;10.050;2023-01-19T06:34:15;12.20;;;7.47;;
74471;SDS011;62920;53.572;10.050;2023-01-19T06:36:41;12.80;;;7.80;;
74471;SDS011;62920;53.572;10.050;2023-01-19T06:39:07;13.35;;;7.68;;
74471;SDS011;62920;53.572;10.050;2023-01-19T06:41:33;14.98;;;8.45;;
74471;SDS011;62920;53.572;10.050;2023-01-19T06:43:59;15.77;;;8.70;;
74471;SDS011;62920;53.572;10.050;2023-01-19T06:46:25;14.05;;;7.95;;
74471;SDS011;62920;53.572;10.050;2023-01-19T06:48:51;14.48;;;8.13;;
74471;SDS011;62920;53.572;10.050;2023-01-19T06:51:17;12.98;;;6.97;;
74471;SDS011;62920;53.572;10.050;2023-01-19T06:53:42;10.82;;;7.30;;
74471;SDS011;62920;53.572;10.050;2023-01-19T06:56:08;11.93;;;7.10;;
74471;SDS011;62920;53.572;10.050;2023-01-19T06:58:33;11.23;;;7.07;;
74471;SDS011;62920;53.572;10.050;2023-01-19T07:01:08;13.45;;;7.25;;
74471;SDS011;62920;53.572;10.050;2023-01-19T07:03:34;13.82;;;7.45;;
74471;SDS011;62920;53.572;10.050;2023-01-19T07:06:02;15.45;;;8.30;;
74471;SDS011;62920;53.572;10.050;2023-01-19T07:08:30;13.40;;;7.45;;
74471;SDS011;62920;53.572;10.050;2023-01-19T07:10:59;13.32;;;7.43;;
74471;SDS011;62920;53.572;10.050;2023-01-19T07:13:30;14.45;;;6.85;;
74471;SDS011;62920;53.572;10.050;2023-01-19T07:15:55;11.40;;;6.53;;
74471;SDS011;62920;53.572;10.050;2023-01-19T07:18:20;14.07;;;8.07;;
74471;SDS011;62920;53.572;10.050;2023-01-19T07:20:46;13.57;;;7.57;;
74471;SDS011;62920;53.572;10.050;2023-01-19T07:23:13;13.32;;;7.13;;
74471;SDS011;62920;53.572;10.050;2023-01-19T07:25:39;12.82;;;7.50;;
74471;SDS011;62920;53.572;10.050;2023-01-19T07:28:05;18.33;;;7.43;;
74471;SDS011;62920;53.572;10.050;2023-01-19T07:30:30;14.43;;;7.85;;
74471;SDS011;62920;53.572;10.050;2023-01-19T07:32:56;16.75;;;8.13;;
74471;SDS011;62920;53.572;10.050;2023-01-19T07:35:22;11.75;;;6.55;;
74471;SDS011;62920;53.572;10.050;2023-01-19T07:37:48;13.52;;;8.38;;
74471;SDS011;62920;53.572;10.050;2023-01-19T07:40:14;14.98;;;8.23;;
74471;SDS011;62920;53.572;10.050;2023-01-19T07:42:41;15.05;;;7.95;;
74471;SDS011;62920;53.572;10.050;2023-01-19T07:45:10;14.60;;;8.07;;
74471;SDS011;62920;53.572;10.050;2023-01-19T07:47:36;16.42;;;8.55;;
74471;SDS011;62920;53.572;10.050;2023-01-19T07:50:01;17.45;;;8.73;;
74471;SDS011;62920;53.572;10.050;2023-01-19T07:52:27;18.73;;;9.52;;
74471;SDS011;62920;53.572;10.050;2023-01-19T07:54:52;18.02;;;10.10;;
74471;SDS011;62920;53.572;10.050;2023-01-19T07:57:18;18.02;;;9.45;;
74471;SDS011;62920;53.572;10.050;2023-01-19T07:59:44;16.17;;;8.50;;
74471;SDS011;62920;53.572;10.050;2023-01-19T08:02:09;16.10;;;9.90;;
74471;SDS011;62920;53.572;10.050;2023-01-19T08:04:35;17.23;;;9.10;;
74471;SDS011;62920;53.572;10.050;2023-01-19T08:07:00;18.63;;;9.18;;
74471;SDS011;62920;53.572;10.050;2023-01-19T08:09:26;19.55;;;9.02;;
74471;SDS011;62920;53.572;10.050;2023-01-19T08:11:51;19.00;;;9.00;;
74471;SDS011;62920;53.572;10.050;2023-01-19T08:14:16;21.13;;;9.77;;
74471;SDS011;62920;53.572;10.050;2023-01-19T08:16:42;14.32;;;7.75;;
74471;SDS011;62920;53.572;10.050;2023-01-19T08:19:07;17.65;;;9.48;;
74471;SDS011;62920;53.572;10.050;2023-01-19T08:21:33;13.07;;;7.53;;
74471;SDS011;62920;53.572;10.050;2023-01-19T08:24:00;16.58;;;9.00;;
74471;SDS011;62920;53.572;10.050;2023-01-19T08:26:29;16.70;;;8.20;;
74471;SDS011;62920;53.572;10.050;2023-01-19T08:28:57;15.52;;;8.20;;
74471;SDS011;62920;53.572;10.050;2023-01-19T08:31:24;13.93;;;7.97;;
74471;SDS011;62920;53.572;10.050;2023-01-19T08:33:50;14.90;;;8.32;;
74471;SDS011;62920;53.572;10.050;2023-01-19T08:36:15;17.60;;;8.45;;
74471;SDS011;62920;53.572;10.050;2023-01-19T08:38:42;15.48;;;7.95;;
74471;SDS011;62920;53.572;10.050;2023-01-19T08:41:09;16.08;;;9.05;;
74471;SDS011;62920;53.572;10.050;2023-01-19T08:43:35;20.75;;;8.23;;
74471;SDS011;62920;53.572;10.050;2023-01-19T08:46:01;13.18;;;7.60;;
74471;SDS011;62920;53.572;10.050;2023-01-19T08:48:27;16.80;;;8.45;;
74471;SDS011;62920;53.572;10.050;2023-01-19T08:50:53;15.13;;;7.88;;
74471;SDS011;62920;53.572;10.050;2023-01-19T08:53:18;18.15;;;7.68;;
74471;SDS011;62920;53.572;10.050;2023-01-19T08:55:45;16.85;;;8.82;;
74471;SDS011;62920;53.572;10.050;2023-01-19T08:58:10;18.38;;;9.15;;
74471;SDS011;62920;53.572;10.050;2023-01-19T09:00:36;18.88;;;8.57;;
74471;SDS011;62920;53.572;10.050;2023-01-19T09:03:03;14.27;;;8.07;;
74471;SDS011;62920;53.572;10.050;2023-01-19T09:05:30;17.75;;;8.70;;
74471;SDS011;62920;53.572;10.050;2023-01-19T09:07:59;13.85;;;8.45;;
74471;SDS011;62920;53.572;10.050;2023-01-19T09:12:53;16.98;;;9.10;;
74471;SDS011;62920;53.572;10.050;2023-01-19T09:15:19;23.08;;;8.95;;
74471;SDS011;62920;53.572;10.050;2023-01-19T09:17:44;16.77;;;8.73;;
74471;SDS011;62920;53.572;10.050;2023-01-19T09:20:09;17.63;;;9.05;;
74471;SDS011;62920;53.572;10.050;2023-01-19T09:22:35;21.70;;;8.98;;
74471;SDS011;62920;53.572;10.050;2023-01-19T09:25:00;15.50;;;8.82;;
74471;SDS011;62920;53.572;10.050;2023-01-19T09:27:26;16.83;;;9.55;;
74471;SDS011;62920;53.572;10.050;2023-01-19T09:29:51;20.48;;;9.70;;
74471;SDS011;62920;53.572;10.050;2023-01-19T09:32:18;24.95;;;9.45;;
74471;SDS011;62920;53.572;10.050;2023-01-19T09:34:44;16.88;;;9.07;;
74471;SDS011;62920;53.572;10.050;2023-01-19T09:37:10;16.83;;;8.32;;
74471;SDS011;62920;53.572;10.050;2023-01-19T09:39:35;18.38;;;9.35;;
74471;SDS011;62920;53.572;10.050;2023-01-19T09:42:22;19.83;;;9.88;;
74471;SDS011;62920;53.572;10.050;2023-01-19T09:44:52;18.85;;;9.23;;
74471;SDS011;62920;53.572;10.050;2023-01-19T09:47:20;20.33;;;10.50;;
74471;SDS011;62920;53.572;10.050;2023-01-19T09:50:12;23.40;;;10.73;;
74471;SDS011;62920;53.572;10.050;2023-01-19T09:52:38;18.23;;;9.68;;
74471;SDS011;62920;53.572;10.050;2023-01-19T09:55:07;17.75;;;9.02;;
74471;SDS011;62920;53.572;10.050;2023-01-19T09:57:45;16.40;;;9.25;;
74471;SDS011;62920;53.572;10.050;2023-01-19T10:00:15;22.10;;;9.77;;
74471;SDS011;62920;53.572;10.050;2023-01-19T10:02:47;18.30;;;9.13;;
74471;SDS011;62920;53.572;10.050;2023-01-19T10:11:55;20.08;;;9.27;;
74471;SDS011;62920;53.572;10.050;2023-01-19T10:14:02;15.63;;;8.30;;
74471;SDS011;62920;53.572;10.050;2023-01-19T10:16:33;18.60;;;9.07;;
74471;SDS011;62920;53.572;10.050;2023-01-19T10:19:01;18.15;;;8.95;;
74471;SDS011;62920;53.572;10.050;2023-01-19T10:21:44;17.77;;;9.07;;
74471;SDS011;62920;53.572;10.050;2023-01-19T10:24:17;17.83;;;9.55;;
74471;SDS011;62920;53.572;10.050;2023-01-19T10:26:50;15.25;;;8.63;;
74471;SDS011;62920;53.572;10.050;2023-01-19T10:29:21;21.50;;;8.85;;
74471;SDS011;62920;53.572;10.050;2023-01-19T10:31:50;17.05;;;8.88;;
74471;SDS011;62920;53.572;10.050;2023-01-19T10:34:17;16.15;;;8.40;;
74471;SDS011;62920;53.572;10.050;2023-01-19T10:36:44;19.45;;;8.77;;
74471;SDS011;62920;53.572;10.050;2023-01-19T10:39:12;20.33;;;8.40;;
74471;SDS011;62920;53.572;10.050;2023-01-19T10:41:40;18.98;;;9.73;;
74471;SDS011;62920;53.572;10.050;2023-01-19T10:44:06;15.65;;;8.68;;
74471;SDS011;62920;53.572;10.050;2023-01-19T10:51:56;16.05;;;8.32;;
74471;SDS011;62920;53.572;10.050;2023-01-19T10:54:22;14.32;;;8.38;;
74471;SDS011;62920;53.572;10.050;2023-01-19T10:56:52;17.35;;;8.52;;
74471;SDS011;62920;53.572;10.050;2023-01-19T11:04:53;13.90;;;7.80;;
74471;SDS011;62920;53.572;10.050;2023-01-19T11:09:45;16.20;;;7.78;;
74471;SDS011;62920;53.572;10.050;2023-01-19T11:14:46;15.38;;;7.72;;
74471;SDS011;62920;53.572;10.050;2023-01-19T11:19:43;14.27;;;7.10;;
74471;SDS011;62920;53.572;10.050;2023-01-19T11:22:18;15.82;;;7.30;;
74471;SDS011;62920;53.572;10.050;2023-01-19T11:24:48;13.38;;;6.90;;
74471;SDS011;62920;53.572;10.050;2023-01-19T11:27:18;13.13;;;6.82;;
74471;SDS011;62920;53.572;10.050;2023-01-19T11:29:47;14.13;;;8.13;;
74471;SDS011;62920;53.572;10.050;2023-01-19T11:32:21;11.63;;;6.80;;
74471;SDS011;62920;53.572;10.050;2023-01-19T11:34:47;14.48;;;7.43;;
74471;SDS011;62920;53.572;10.050;2023-01-19T11:39:48;15.52;;;7.75;;
74471;SDS011;62920;53.572;10.050;2023-01-19T11:42:14;15.32;;;7.13;;
74471;SDS011;62920;53.572;10.050;2023-01-19T11:47:26;15.77;;;7.38;;
74471;SDS011;62920;53.572;10.050;2023-01-19T11:49:59;12.95;;;7.40;;
74471;SDS011;62920;53.572;10.050;2023-01-19T11:58:16;13.05;;;7.05;;
74471;SDS011;62920;53.572;10.050;2023-01-19T12:00:43;12.93;;;7.38;;
74471;SDS011;62920;53.572;10.050;2023-01-19T12:06:20;12.93;;;7.22;;
74471;SDS011;62920;53.572;10.050;2023-01-19T12:08:50;16.80;;;7.20;;
74471;SDS011;62920;53.572;10.050;2023-01-19T12:11:20;15.63;;;6.97;;
74471;SDS011;62920;53.572;10.050;2023-01-19T12:13:49;13.27;;;7.25;;
74471;SDS011;62920;53.572;10.050;2023-01-19T12:16:19;16.15;;;6.85;;
74471;SDS011;62920;53.572;10.050;2023-01-19T12:18:56;12.80;;;6.82;;
74471;SDS011;62920;53.572;10.050;2023-01-19T12:21:27;13.70;;;7.28;;
74471;SDS011;62920;53.572;10.050;2023-01-19T12:24:13;15.68;;;7.15;;
74471;SDS011;62920;53.572;10.050;2023-01-19T12:26:57;17.48;;;7.25;;
74471;SDS011;62920;53.572;10.050;2023-01-19T12:29:25;14.57;;;7.38;;
74471;SDS011;62920;53.572;10.050;2023-01-19T12:37:05;13.63;;;7.43;;
74471;SDS011;62920;53.572;10.050;2023-01-19T12:42:05;13.55;;;6.78;;
74471;SDS011;62920;53.572;10.050;2023-01-19T12:44:41;15.45;;;7.13;;
74471;SDS011;62920;53.572;10.050;2023-01-19T12:52:25;14.02;;;6.28;;
74471;SDS011;62920;53.572;10.050;2023-01-19T13:02:48;9.43;;;5.53;;
74471;SDS011;62920;53.572;10.050;2023-01-19T13:05:22;13.57;;;6.45;;
74471;SDS011;62920;53.572;10.050;2023-01-19T13:13:35;14.23;;;6.72;;
74471;SDS011;62920;53.572;10.050;2023-01-19T13:18:43;13.40;;;6.80;;
74471;SDS011;62920;53.572;10.050;2023-01-19T13:21:12;12.50;;;6.05;;
74471;SDS011;62920;53.572;10.050;2023-01-19T13:26:17;10.93;;;5.25;;
74471;SDS011;62920;53.572;10.050;2023-01-19T13:28:51;12.10;;;6.15;;
74471;SDS011;62920;53.572;10.050;2023-01-19T13:31:19;12.93;;;6.75;;
74471;SDS011;62920;53.572;10.050;2023-01-19T13:33:49;12.40;;;6.90;;
74471;SDS011;62920;53.572;10.050;2023-01-19T13:38:56;11.35;;;6.18;;
74471;SDS011;62920;53.572;10.050;2023-01-19T13:41:24;13.15;;;6.75;;
74471;SDS011;62920;53.572;10.050;2023-01-19T13:43:55;12.35;;;6.72;;
74471;SDS011;62920;53.572;10.050;2023-01-19T13:46:42;16.75;;;6.53;;
74471;SDS011;62920;53.572;10.050;2023-01-19T13:49:18;14.20;;;6.78;;
74471;SDS011;62920;53.572;10.050;2023-01-19T13:52:03;11.75;;;5.82;;
74471;SDS011;62920;53.572;10.050;2023-01-19T13:54:29;12.82;;;6.30;;
74471;SDS011;62920;53.572;10.050;2023-01-19T13:56:55;12.93;;;6.07;;
74471;SDS011;62920;53.572;10.050;2023-01-19T13:59:20;12.60;;;5.57;;
74471;SDS011;62920;53.572;10.050;2023-01-19T14:01:48;12.80;;;5.55;;
74471;SDS011;62920;53.572;10.050;2023-01-19T14:04:25;16.73;;;5.55;;
74471;SDS011;62920;53.572;10.050;2023-01-19T14:06:51;11.75;;;6.10;;
74471;SDS011;62920;53.572;10.050;2023-01-19T14:09:19;14.35;;;6.25;;
74471;SDS011;62920;53.572;10.050;2023-01-19T14:14:30;13.10;;;5.90;;
74471;SDS011;62920;53.572;10.050;2023-01-19T14:16:56;11.75;;;6.03;;
74471;SDS011;62920;53.572;10.050;2023-01-19T14:19:21;10.32;;;5.30;;
74471;SDS011;62920;53.572;10.050;2023-01-19T14:22:00;11.98;;;5.90;;
74471;SDS011;62920;53.572;10.050;2023-01-19T14:24:27;10.07;;;5.50;;
74471;SDS011;62920;53.572;10.050;2023-01-19T14:29:38;12.30;;;5.45;;
74471;SDS011;62920;53.572;10.050;2023-01-19T14:32:11;16.25;;;6.00;;
74471;SDS011;62920;53.572;10.050;2023-01-19T14:34:39;10.20;;;5.03;;
74471;SDS011;62920;53.572;10.050;2023-01-19T14:37:20;10.95;;;6.00;;
74471;SDS011;62920;53.572;10.050;2023-01-19T14:42:23;10.18;;;4.80;;
74471;SDS011;62920;53.572;10.050;2023-01-19T14:44:50;9.88;;;4.90;;
74471;SDS011;62920;53.572;10.050;2023-01-19T14:47:23;13.95;;;5.28;;
74471;SDS011;62920;53.572;10.050;2023-01-19T14:49:51;16.30;;;5.03;;
74471;SDS011;62920;53.572;10.050;2023-01-19T14:52:20;12.27;;;4.57;;
74471;SDS011;62920;53.572;10.050;2023-01-19T14:54:49;11.57;;;5.05;;
74471;SDS011;62920;53.572;10.050;2023-01-19T14:57:14;11.52;;;4.90;;
74471;SDS011;62920;53.572;10.050;2023-01-19T14:59:40;11.45;;;4.72;;
74471;SDS011;62920;53.572;10.050;2023-01-19T15:02:06;12.77;;;4.80;;
74471;SDS011;62920;53.572;10.050;2023-01-19T15:04:31;13.30;;;5.45;;
74471;SDS011;62920;53.572;10.050;2023-01-19T15:06:57;12.30;;;5.13;;
74471;SDS011;62920;53.572;10.050;2023-01-19T15:09:22;10.93;;;4.65;;
74471;SDS011;62920;53.572;10.050;2023-01-19T15:11:48;10.45;;;4.53;;
74471;SDS011;62920;53.572;10.050;2023-01-19T15:14:14;10.57;;;4.25;;
74471;SDS011;62920;53.572;10.050;2023-01-19T15:16:41;12.32;;;4.72;;
74471;SDS011;62920;53.572;10.050;2023-01-19T15:19:13;13.00;;;4.72;;
74471;SDS011;62920;53.572;10.050;2023-01-19T15:21:40;10.73;;;4.10;;
74471;SDS011;62920;53.572;10.050;2023-01-19T15:24:07;15.30;;;4.22;;
74471;SDS011;62920;53.572;10.050;2023-01-19T15:26:34;11.75;;;5.18;;
74471;SDS011;62920;53.572;10.050;2023-01-19T15:29:00;14.55;;;4.65;;
74471;SDS011;62920;53.572;10.050;2023-01-19T15:31:25;14.55;;;5.10;;
74471;SDS011;62920;53.572;10.050;2023-01-19T15:33:50;12.55;;;4.28;;
74471;SDS011;62920;53.572;10.050;2023-01-19T15:36:17;8.02;;;4.10;;
74471;SDS011;62920;53.572;10.050;2023-01-19T15:38:44;9.82;;;3.45;;
74471;SDS011;62920;53.572;10.050;2023-01-19T15:46:14;12.63;;;3.67;;
74471;SDS011;62920;53.572;10.050;2023-01-19T15:48:42;9.75;;;3.63;;
74471;SDS011;62920;53.572;10.050;2023-01-19T15:51:11;10.00;;;4.10;;
74471;SDS011;62920;53.572;10.050;2023-01-19T15:53:38;9.43;;;4.05;;
74471;SDS011;62920;53.572;10.050;2023-01-19T15:56:04;15.02;;;3.95;;
74471;SDS011;62920;53.572;10.050;2023-01-19T15:58:30;10.38;;;3.88;;
74471;SDS011;62920;53.572;10.050;2023-01-19T16:00:56;15.85;;;4.05;;
74471;SDS011;62920;53.572;10.050;2023-01-19T16:03:22;12.25;;;3.78;;
74471;SDS011;62920;53.572;10.050;2023-01-19T16:05:48;11.75;;;4.25;;
74471;SDS011;62920;53.572;10.050;2023-01-19T16:08:14;9.05;;;3.60;;
74471;SDS011;62920;53.572;10.050;2023-01-19T16:10:40;12.95;;;3.70;;